Time;durP1;ratioP1;P1;durP2;ratioP2;P2;SDS_P1;SDS_P2;PMS_P1;PMS_P2;Temp;Humidity;BMP_temperature;BMP_pressure;BME280_temperature;BME280_humidity;BME280_pressure;Samples;Min_cycle;Max_cycle;Signal;HPM_P1;HPM_P2
2022/12/29 00:01:39;;;;;;;1.23;1.05;;;;;;;7.89;100.00;99625.19;6245286;22;20181;-75
2022/12/29 00:04:06;;;;;;;1.55;1.45;;;;;;;7.91;100.00;99620.84;6245238;22;20775;-75
2022/12/29 00:06:32;;;;;;;1.70;0.90;;;;;;;7.95;100.00;99622.50;6245760;22;20020;-74
2022/12/29 00:08:59;;;;;;;1.17;1.10;;;;;;;8.01;100.00;99629.34;6272777;22;20016;-74
2022/12/29 00:11:27;;;;;;;1.65;1.17;;;;;;;8.10;100.00;99623.16;6244712;22;20102;-74
2022/12/29 00:16:42;;;;;;;4.03;1.13;;;;;;;8.20;100.00;99622.13;6248669;22;20129;-75
2022/12/29 00:35:07;;;;;;;1.27;0.80;;;;;;;8.24;100.00;99629.00;6244863;22;20015;-74
2022/12/29 00:35:54;;;;;;;;;;;;;;;8.32;100.00;99612.38;6248229;22;20008;-75
2022/12/29 00:44:09;;;;;;;1.15;0.70;;;;;;;8.44;100.00;99614.78;6249351;22;20014;-75
2022/12/29 00:46:42;;;;;;;2.35;1.30;;;;;;;8.43;100.00;99613.94;6249550;22;20015;-75
2022/12/29 00:51:58;;;;;;;0.80;0.70;;;;;;;8.47;100.00;99619.97;6270568;22;20014;-75
2022/12/29 00:54:25;;;;;;;0.90;0.90;;;;;;;8.47;100.00;99613.91;6218367;22;20016;-74
2022/12/29 00:56:53;;;;;;;1.08;0.98;;;;;;;8.46;100.00;99604.34;6243439;22;20016;-74
2022/12/29 00:59:20;;;;;;;0.55;0.55;;;;;;;8.49;100.00;99604.31;6244559;22;20019;-75
2022/12/29 01:01:47;;;;;;;2.05;0.90;;;;;;;8.49;100.00;99605.16;6244111;22;20082;-74
2022/12/29 01:04:14;;;;;;;1.42;1.17;;;;;;;8.48;100.00;99607.81;6243840;22;20830;-74
2022/12/29 01:06:42;;;;;;;1.13;0.95;;;;;;;8.51;100.00;99602.53;6244679;22;20016;-74
2022/12/29 01:11:54;;;;;;;2.40;0.90;;;;;;;8.49;100.00;99586.91;6248496;22;20018;-74
2022/12/29 01:14:21;;;;;;;1.17;0.95;;;;;;;8.47;100.00;99585.22;6246688;22;20012;-74
2022/12/29 01:16:48;;;;;;;0.98;0.90;;;;;;;8.44;100.00;99578.28;6245244;22;20019;-75
2022/12/29 01:19:16;;;;;;;1.85;0.73;;;;;;;8.42;100.00;99577.41;6245053;22;20439;-75
2022/12/29 01:21:43;;;;;;;0.65;0.65;;;;;;;8.39;100.00;99575.72;6244842;22;20066;-74
2022/12/29 01:24:10;;;;;;;1.05;0.60;;;;;;;8.37;100.00;99569.69;6217659;22;20016;-74
2022/12/29 01:26:36;;;;;;;0.57;0.57;;;;;;;8.41;100.00;99560.09;6269073;22;20015;-75
2022/12/29 01:29:03;;;;;;;0.82;0.82;;;;;;;8.39;100.00;99548.81;6242116;22;20011;-74
2022/12/29 01:31:29;;;;;;;1.30;0.45;;;;;;;8.35;100.00;99555.81;6218171;22;20022;-74
2022/12/29 01:33:56;;;;;;;1.05;0.80;;;;;;;8.32;100.00;99545.44;6243212;22;20023;-75
2022/12/29 01:36:22;;;;;;;0.68;0.68;;;;;;;8.28;100.00;99551.59;6270504;22;20062;-74
2022/12/29 01:38:49;;;;;;;1.08;0.90;;;;;;;8.30;100.00;99541.16;6271395;22;20011;-75
2022/12/29 01:41:17;;;;;;;0.63;0.63;;;;;;;8.30;100.00;99536.78;6243923;22;20019;-74
2022/12/29 01:43:56;;;;;;;1.38;0.70;;;;;;;8.28;100.00;99533.34;6243477;22;20023;-74
2022/12/29 01:46:38;;;;;;;0.47;0.45;;;;;;;8.25;100.00;99523.84;6244459;22;20018;-75
2022/12/29 01:49:20;;;;;;;0.47;0.47;;;;;;;8.21;100.00;99531.72;6243222;22;20023;-75
2022/12/29 01:51:58;;;;;;;1.45;0.60;;;;;;;8.18;100.00;99530.03;6218561;22;20102;-75
2022/12/29 01:54:39;;;;;;;0.85;0.50;;;;;;;8.19;100.00;99528.31;6218277;22;20074;-74
2022/12/29 01:57:12;;;;;;;0.90;0.50;;;;;;;8.19;100.00;99531.75;6244665;22;20011;-75
2022/12/29 01:59:46;;;;;;;1.42;0.47;;;;;;;8.22;100.00;99523.03;6244421;22;20018;-74
2022/12/29 02:02:13;;;;;;;0.80;0.80;;;;;;;8.28;100.00;99522.94;6243638;22;20016;-75
2022/12/29 02:04:44;;;;;;;0.75;0.60;;;;;;;8.38;100.00;99502.75;6243135;22;20011;-74
2022/12/29 02:07:19;;;;;;;0.70;0.52;;;;;;;8.43;100.00;99511.34;6243512;22;20083;-74
2022/12/29 02:09:51;;;;;;;1.20;0.60;;;;;;;8.42;100.00;99510.50;6244093;22;20097;-74
2022/12/29 02:12:21;;;;;;;0.52;0.52;;;;;;;8.43;100.00;99508.75;6218346;22;20015;-74
2022/12/29 02:14:54;;;;;;;0.65;0.65;;;;;;;8.44;100.00;99508.69;6216370;22;20011;-74
2022/12/29 02:17:51;;;;;;;0.60;0.60;;;;;;;8.46;100.00;99503.50;6245016;22;20019;-75
2022/12/29 02:21:06;;;;;;;0.40;0.40;;;;;;;8.47;100.00;99505.22;6246056;22;20015;-74
2022/12/29 02:24:20;;;;;;;1.02;0.88;;;;;;;8.49;100.00;99505.22;6243812;22;20071;-75
2022/12/29 02:27:15;;;;;;;0.50;0.50;;;;;;;8.58;100.00;99498.06;6194649;22;20016;-75
2022/12/29 02:30:03;;;;;;;0.60;0.60;;;;;;;8.67;100.00;99503.97;6244496;22;20020;-74
2022/12/29 02:33:01;;;;;;;0.82;0.60;;;;;;;8.73;100.00;99509.91;6242415;22;20023;-76
2022/12/29 02:35:47;;;;;;;0.85;0.40;;;;;;;8.76;100.00;99512.50;6244018;22;20020;-75
2022/12/29 02:38:36;;;;;;;1.25;0.60;;;;;;;8.77;100.00;99510.72;6243315;22;20007;-74
2022/12/29 02:41:19;;;;;;;1.50;0.55;;;;;;;8.78;100.00;99510.69;6243414;22;20034;-75
2022/12/29 02:43:58;;;;;;;0.50;0.50;;;;;;;8.75;100.00;99508.16;6217994;22;20012;-75
2022/12/29 02:46:37;;;;;;;1.52;0.50;;;;;;;8.76;100.00;99517.72;6242801;22;20058;-74
2022/12/29 02:49:23;;;;;;;0.63;0.63;;;;;;;8.76;100.00;99515.09;6216256;22;20012;-75
2022/12/29 02:52:02;;;;;;;0.47;0.45;;;;;;;8.80;100.00;99509.81;6214983;22;20035;-76
2022/12/29 02:54:41;;;;;;;1.65;0.80;;;;;;;8.85;100.00;99489.69;6242955;22;20437;-75
2022/12/29 02:57:23;;;;;;;0.50;0.50;;;;;;;8.93;100.00;99490.41;6246111;22;20086;-74
2022/12/29 03:00:02;;;;;;;0.55;0.35;;;;;;;8.94;100.00;99486.88;6270039;22;20008;-75
2022/12/29 03:03:16;;;;;;;0.90;0.85;;;;;;;8.98;100.00;99483.31;6242584;22;20020;-75
2022/12/29 03:06:07;;;;;;;0.70;0.70;;;;;;;9.04;100.00;99487.56;6242754;22;20004;-75
2022/12/29 03:08:48;;;;;;;0.40;0.40;;;;;;;9.02;100.00;99497.16;6218449;22;20015;-75
2022/12/29 03:16:59;;;;;;;0.52;0.45;;;;;;;9.00;100.00;99478.09;6247414;22;20082;-75
2022/12/29 03:19:46;;;;;;;2.60;0.50;;;;;;;8.94;100.00;99460.78;6243550;22;20023;-75
2022/12/29 03:22:31;;;;;;;0.68;0.68;;;;;;;8.87;100.00;99470.50;6217545;22;20050;-75
2022/12/29 03:25:10;;;;;;;0.77;0.77;;;;;;;8.85;100.00;99461.88;6242145;22;20034;-75
2022/12/29 03:27:50;;;;;;;0.30;0.30;;;;;;;8.89;100.00;99452.19;6243639;22;20069;-76
2022/12/29 03:30:18;;;;;;;0.40;0.40;;;;;;;9.03;100.00;99438.84;6217847;22;20323;-75
2022/12/29 03:32:53;;;;;;;0.90;0.30;;;;;;;9.04;100.00;99444.03;6242830;22;20379;-75
2022/12/29 03:35:25;;;;;;;0.70;0.60;;;;;;;9.03;100.00;99438.84;6242968;22;20015;-75
2022/12/29 03:38:25;;;;;;;0.50;0.45;;;;;;;9.02;100.00;99455.41;6243538;22;20078;-76
2022/12/29 03:40:57;;;;;;;0.40;0.40;;;;;;;9.05;100.00;99456.22;6233863;22;20114;-76
2022/12/29 03:43:24;;;;;;;0.65;0.52;;;;;;;9.07;100.00;99450.94;6216289;22;20020;-76
2022/12/29 03:45:50;;;;;;;0.20;0.20;;;;;;;9.08;100.00;99443.06;6242687;22;20027;-75
2022/12/29 03:48:17;;;;;;;0.93;0.82;;;;;;;9.14;100.00;99449.94;6243992;22;20016;-76
2022/12/29 03:50:43;;;;;;;1.58;0.60;;;;;;;9.17;100.00;99439.41;6244965;22;20012;-75
2022/12/29 03:53:10;;;;;;;0.50;0.50;;;;;;;9.21;100.00;99430.59;6241595;22;20020;-75
2022/12/29 03:55:36;;;;;;;0.40;0.40;;;;;;;9.27;100.00;99424.41;6268112;22;20012;-75
2022/12/29 03:58:03;;;;;;;0.17;0.17;;;;;;;9.35;100.00;99430.28;6242176;22;20617;-76
2022/12/29 04:00:29;;;;;;;0.73;0.20;;;;;;;9.43;100.00;99425.72;6243142;22;20014;-74
2022/12/29 04:02:56;;;;;;;0.20;0.20;;;;;;;9.47;100.00;99436.13;6217764;22;20042;-75
2022/12/29 04:05:23;;;;;;;0.35;0.35;;;;;;;9.53;100.00;99436.84;6242362;22;20015;-75
2022/12/29 04:07:50;;;;;;;0.75;0.30;;;;;;;9.58;100.00;99434.09;6217251;22;20111;-75
2022/12/29 04:10:16;;;;;;;0.30;0.30;;;;;;;9.60;100.00;99430.53;6242649;22;20651;-74
2022/12/29 04:12:42;;;;;;;1.27;0.43;;;;;;;9.66;100.00;99434.78;6241522;22;20454;-75
2022/12/29 04:15:10;;;;;;;1.17;0.57;;;;;;;9.66;100.00;99439.13;6215847;22;20333;-74
2022/12/29 04:17:37;;;;;;;0.55;0.40;;;;;;;9.68;100.00;99440.81;6269276;22;20097;-76
2022/12/29 04:22:45;;;;;;;0.20;0.20;;;;;;;9.73;100.00;99422.41;6219363;22;20011;-76
2022/12/29 04:25:11;;;;;;;0.25;0.20;;;;;;;9.74;100.00;99430.22;6241754;22;20085;-76
2022/12/29 04:27:38;;;;;;;0.38;0.38;;;;;;;9.77;100.00;99434.50;6268640;22;20013;-74
2022/12/29 04:30:05;;;;;;;0.20;0.20;;;;;;;9.74;100.00;99434.59;6241148;22;20011;-74
2022/12/29 04:32:31;;;;;;;0.43;0.40;;;;;;;9.70;100.00;99422.47;6265721;22;20111;-74
2022/12/29 04:34:58;;;;;;;0.45;0.32;;;;;;;9.77;100.00;99434.50;6238059;22;20011;-75
2022/12/29 04:37:24;;;;;;;0.30;0.30;;;;;;;9.77;100.00;99435.34;6240227;22;20008;-73
2022/12/29 04:39:51;;;;;;;1.20;0.40;;;;;;;9.77;100.00;99430.13;6266575;22;20020;-75
2022/12/29 04:42:17;;;;;;;0.28;0.20;;;;;;;9.79;100.00;99445.78;6213438;22;20012;-75
2022/12/29 04:44:44;;;;;;;0.30;0.30;;;;;;;9.77;100.00;99435.34;6241285;22;20019;-75
2022/12/29 04:47:10;;;;;;;0.60;0.35;;;;;;;9.75;100.00;99431.94;6246455;22;20012;-74
2022/12/29 04:49:36;;;;;;;0.15;0.15;;;;;;;9.75;100.00;99425.84;6273252;22;20020;-75
2022/12/29 04:52:03;;;;;;;0.90;0.20;;;;;;;9.72;100.00;99420.69;6243892;22;20016;-75
2022/12/29 04:54:30;;;;;;;0.20;0.20;;;;;;;9.71;100.00;99425.06;6218479;22;20529;-75
2022/12/29 04:56:56;;;;;;;0.40;0.30;;;;;;;9.72;100.00;99428.53;6244776;22;20014;-75
2022/12/29 04:59:23;;;;;;;0.28;0.28;;;;;;;9.70;100.00;99423.34;6244087;22;20115;-75
2022/12/29 05:01:49;;;;;;;0.40;0.22;;;;;;;9.75;100.00;99423.22;6244915;22;20015;-75
2022/12/29 05:04:16;;;;;;;0.20;0.20;;;;;;;9.72;100.00;99410.25;6243495;22;20026;-76
2022/12/29 05:06:42;;;;;;;0.22;0.20;;;;;;;9.69;100.00;99413.78;6244297;22;20378;-74
2022/12/29 05:09:09;;;;;;;0.38;0.20;;;;;;;9.68;100.00;99411.22;6244215;22;20069;-74
2022/12/29 05:11:35;;;;;;;0.63;0.30;;;;;;;9.71;100.00;99408.50;6271037;22;20016;-76
2022/12/29 05:14:02;;;;;;;0.32;0.15;;;;;;;9.71;100.00;99408.50;6244672;22;20091;-75
2022/12/29 05:16:28;;;;;;;0.10;0.10;;;;;;;9.68;100.00;99401.63;6245648;22;20008;-74
2022/12/29 05:18:55;;;;;;;2.13;1.33;;;;;;;9.69;100.00;99405.94;6246080;22;20043;-74
2022/12/29 05:21:21;;;;;;;0.55;0.30;;;;;;;9.74;100.00;99400.63;6273266;22;20019;-73
2022/12/29 05:23:48;;;;;;;0.40;0.38;;;;;;;9.79;100.00;99400.47;6244020;22;20008;-74
2022/12/29 05:26:14;;;;;;;0.20;0.20;;;;;;;9.82;100.00;99403.03;6271160;22;20007;-74
2022/12/29 05:28:41;;;;;;;0.13;0.13;;;;;;;9.87;100.00;99399.41;6241419;22;20427;-74
2022/12/29 05:31:07;;;;;;;0.22;0.22;;;;;;;9.85;100.00;99395.94;6245089;22;20431;-74
2022/12/29 05:33:33;;;;;;;5.38;0.30;;;;;;;9.82;100.00;99396.03;6244037;22;20326;-74
2022/12/29 05:36:08;;;;;;;0.50;0.50;;;;;;;9.91;99.81;99400.19;6246452;22;20396;-74
2022/12/29 05:38:35;;;;;;;1.05;0.40;;;;;;;9.96;98.91;99398.31;6220924;22;20014;-75
2022/12/29 05:41:02;;;;;;;0.30;0.30;;;;;;;10.07;98.74;99404.06;6220413;22;20043;-75
2022/12/29 05:43:29;;;;;;;0.15;0.15;;;;;;;10.05;98.99;99398.06;6244624;22;20062;-75
2022/12/29 05:45:56;;;;;;;0.10;0.10;;;;;;;10.04;99.29;99393.72;6245888;22;20007;-75
2022/12/29 05:48:22;;;;;;;0.30;0.10;;;;;;;10.00;100.00;99396.44;6244346;22;20012;-74
2022/12/29 05:50:52;;;;;;;3.95;0.98;;;;;;;9.93;100.00;99400.97;6243131;22;20018;-75
2022/12/29 05:53:19;;;;;;;0.45;0.20;;;;;;;9.92;100.00;99412.31;6217454;22;20049;-74
2022/12/29 05:55:48;;;;;;;1.38;0.20;;;;;;;9.89;100.00;99412.41;6245324;22;20086;-74
2022/12/29 05:58:16;;;;;;;0.75;0.10;;;;;;;9.80;100.00;99413.50;6271137;22;20012;-74
2022/12/29 06:00:46;;;;;;;0.30;0.30;;;;;;;9.74;100.00;99408.47;6243899;22;20379;-75
2022/12/29 06:03:12;;;;;;;1.23;0.30;;;;;;;9.69;100.00;99405.09;6217409;22;20023;-75
2022/12/29 06:05:38;;;;;;;0.52;0.20;;;;;;;9.66;100.00;99407.78;6244097;22;20767;-74
2022/12/29 06:08:05;;;;;;;1.75;0.28;;;;;;;9.66;100.00;99406.03;6271502;22;20493;-74
2022/12/29 06:10:32;;;;;;;0.28;0.20;;;;;;;9.62;100.00;99396.56;6219449;22;20042;-74
2022/12/29 06:12:58;;;;;;;1.35;0.17;;;;;;;9.58;100.00;99398.41;6218361;22;20031;-75
2022/12/29 06:15:25;;;;;;;0.20;0.20;;;;;;;9.53;100.00;99388.94;6217671;22;20484;-74
2022/12/29 06:17:51;;;;;;;0.32;0.20;;;;;;;9.45;100.00;99376.06;6244619;22;20019;-75
2022/12/29 06:20:18;;;;;;;0.75;0.20;;;;;;;9.37;100.00;99372.78;6244738;22;20018;-74
2022/12/29 06:22:45;;;;;;;0.20;0.20;;;;;;;9.28;100.00;99371.25;6243205;22;20039;-75
2022/12/29 06:25:11;;;;;;;0.20;0.10;;;;;;;9.21;100.00;99370.53;6243889;22;20106;-76
2022/12/29 06:27:38;;;;;;;0.20;0.20;;;;;;;9.22;100.00;99371.44;6244028;22;20027;-75
2022/12/29 06:30:05;;;;;;;0.30;0.30;;;;;;;9.19;100.00;99361.91;6243114;22;20674;-76
2022/12/29 06:32:31;;;;;;;1.25;0.10;;;;;;;9.21;100.00;99359.25;6218220;22;20043;-76
2022/12/29 06:34:57;;;;;;;0.55;0.28;;;;;;;9.17;100.00;99353.25;6243390;22;20357;-75
2022/12/29 06:37:24;;;;;;;0.40;0.20;;;;;;;9.19;100.00;99341.03;6271296;22;20453;-75
2022/12/29 06:39:50;;;;;;;0.30;0.15;;;;;;;9.20;100.00;99334.88;6243782;22;20647;-75
2022/12/29 06:42:17;;;;;;;0.28;0.28;;;;;;;9.22;100.00;99354.00;6217752;22;20026;-76
2022/12/29 06:44:43;;;;;;;0.45;0.20;;;;;;;9.24;100.00;99347.00;6243638;22;20322;-75
2022/12/29 06:47:10;;;;;;;0.20;0.20;;;;;;;9.32;100.00;99352.03;6243723;22;20119;-75
2022/12/29 06:49:36;;;;;;;0.28;0.28;;;;;;;9.29;100.00;99343.41;6243824;22;20370;-75
2022/12/29 06:52:04;;;;;;;0.30;0.30;;;;;;;9.30;100.00;99329.47;6244293;22;20007;-75
2022/12/29 06:54:32;;;;;;;0.20;0.20;;;;;;;9.45;100.00;99339.50;6218401;22;20039;-75
2022/12/29 06:56:58;;;;;;;0.17;0.17;;;;;;;9.63;100.00;99343.38;6244782;22;20012;-75
2022/12/29 06:59:25;;;;;;;0.28;0.28;;;;;;;9.66;100.00;99345.94;6220002;22;20114;-75
2022/12/29 07:01:52;;;;;;;1.05;0.30;;;;;;;9.69;100.00;99342.38;6244020;22;20032;-75
2022/12/29 07:04:19;;;;;;;0.10;0.10;;;;;;;9.75;100.00;99335.25;6270033;22;20011;-75
2022/12/29 07:06:45;;;;;;;1.50;0.10;;;;;;;9.83;100.00;99342.00;6244099;22;20015;-75
2022/12/29 07:09:12;;;;;;;0.30;0.30;;;;;;;9.85;100.00;99342.84;6244584;22;20025;-76
2022/12/29 07:11:38;;;;;;;0.10;0.10;;;;;;;9.87;100.00;99341.03;6245970;22;20424;-74
2022/12/29 07:14:04;;;;;;;0.10;0.10;;;;;;;9.90;100.00;99354.88;6244442;22;20457;-75
2022/12/29 07:16:31;;;;;;;1.27;0.10;;;;;;;10.06;100.00;99355.31;6271144;22;20766;-75
2022/12/29 07:18:58;;;;;;;0.22;0.10;;;;;;;10.26;100.00;99435.84;6244651;22;20016;-75
2022/12/29 07:21:25;;;;;;;0.88;0.43;;;;;;;10.14;100.00;99436.16;6243359;22;20319;-75
2022/12/29 07:23:51;;;;;;;7.47;0.43;;;;;;;9.76;100.00;99440.63;6243638;22;20684;-75
2022/12/29 07:26:18;;;;;;;1.00;0.20;;;;;;;8.72;100.00;99426.47;6243449;22;20012;-76
2022/12/29 07:28:45;;;;;;;0.35;0.20;;;;;;;8.06;100.00;99439.88;6243577;22;20087;-76
2022/12/29 07:31:17;;;;;;;0.40;0.10;;;;;;;7.87;100.00;99464.53;6244411;22;20291;-76
2022/12/29 07:33:45;;;;;;;0.10;0.10;;;;;;;7.85;100.00;99440.25;6219019;22;20012;-76
2022/12/29 07:36:13;;;;;;;0.22;0.20;;;;;;;7.85;100.00;99463.69;6244633;22;20047;-78
2022/12/29 07:38:40;;;;;;;0.15;0.10;;;;;;;7.83;100.00;99463.72;6245560;22;20012;-76
2022/12/29 07:41:07;;;;;;;1.73;0.13;;;;;;;7.71;100.00;99459.59;6219802;22;20015;-76
2022/12/29 07:43:34;;;;;;;2.10;0.20;;;;;;;7.63;100.00;99471.88;6243206;22;20065;-76
2022/12/29 07:46:00;;;;;;;0.25;0.10;;;;;;;7.61;100.00;99471.03;6243572;22;20351;-78
2022/12/29 07:48:28;;;;;;;0.57;0.57;;;;;;;7.65;100.00;99470.09;6244206;22;20018;-75
2022/12/29 07:50:54;;;;;;;2.47;0.10;;;;;;;7.64;100.00;99475.34;6244608;22;20011;-76
2022/12/29 07:53:21;;;;;;;2.20;0.40;;;;;;;7.72;100.00;99476.94;6241580;22;20020;-76
2022/12/29 07:55:47;;;;;;;0.30;0.30;;;;;;;7.52;100.00;99471.19;6219427;22;20016;-76
2022/12/29 07:58:14;;;;;;;0.10;0.10;;;;;;;7.51;100.00;99454.72;6243306;22;20077;-75
2022/12/29 08:00:40;;;;;;;1.48;0.20;;;;;;;7.46;100.00;99459.13;6243731;22;20019;-76
2022/12/29 08:03:07;;;;;;;0.28;0.25;;;;;;;7.44;100.00;99463.50;6217376;22;20012;-76
2022/12/29 08:05:35;;;;;;;0.20;0.20;;;;;;;7.38;100.00;99466.19;6243225;22;20016;-75
2022/12/29 08:08:01;;;;;;;0.38;0.25;;;;;;;7.40;100.00;99472.25;6217518;22;20016;-75
2022/12/29 08:10:28;;;;;;;0.15;0.15;;;;;;;7.41;100.00;99468.75;6244101;22;20019;-75
2022/12/29 08:12:54;;;;;;;0.17;0.17;;;;;;;7.48;100.00;99479.94;6218268;22;20047;-75
2022/12/29 08:15:21;;;;;;;0.40;0.40;;;;;;;7.65;100.00;99479.66;6244745;22;20016;-76
2022/12/29 08:17:47;;;;;;;0.50;0.20;;;;;;;7.75;100.00;99478.63;6219392;22;20026;-75
2022/12/29 08:20:14;;;;;;;0.73;0.40;;;;;;;7.84;100.00;99488.06;6270894;22;20042;-74
2022/12/29 08:22:41;;;;;;;1.00;0.50;;;;;;;8.00;100.00;99496.47;6219708;22;20015;-75
2022/12/29 08:25:08;;;;;;;2.05;0.65;;;;;;;8.05;100.00;99492.03;6244725;22;20423;-76
2022/12/29 08:27:35;;;;;;;1.15;0.60;;;;;;;8.33;100.00;99479.38;6244531;22;20090;-74
2022/12/29 08:30:01;;;;;;;1.73;0.50;;;;;;;8.41;100.00;99487.91;6242836;22;20074;-74
2022/12/29 08:32:29;;;;;;;0.57;0.30;;;;;;;8.66;100.00;99491.84;6245929;22;20016;-75
2022/12/29 08:34:55;;;;;;;1.63;0.47;;;;;;;8.64;100.00;99514.47;6247168;22;20085;-75
2022/12/29 08:37:23;;;;;;;4.25;0.35;;;;;;;8.74;100.00;99474.28;6221273;22;20426;-76
2022/12/29 08:39:49;;;;;;;3.15;0.50;;;;;;;8.92;100.00;99497.38;6221336;22;20012;-75
2022/12/29 08:42:16;;;;;;;0.57;0.50;;;;;;;9.02;100.00;99499.78;6244235;22;20087;-75
2022/12/29 08:44:43;;;;;;;2.90;0.63;;;;;;;9.12;100.00;99497.84;6242783;22;20039;-75
2022/12/29 08:47:11;;;;;;;4.60;1.17;;;;;;;9.19;100.00;99505.53;6242110;22;20062;-75
2022/12/29 08:49:38;;;;;;;6.38;2.25;;;;;;;9.24;99.65;99514.13;6242382;22;20012;-75
2022/12/29 08:52:05;;;;;;;2.67;0.60;;;;;;;9.16;100.00;99517.78;6269464;22;20012;-76
2022/12/29 08:54:31;;;;;;;2.50;1.40;;;;;;;9.08;100.00;99526.63;6273879;22;20263;-76
2022/12/29 08:56:58;;;;;;;1.05;0.63;;;;;;;9.01;100.00;99521.56;6221552;22;20016;-75
2022/12/29 08:59:24;;;;;;;1.80;0.43;;;;;;;8.87;100.00;99532.28;6221382;22;20023;-75
2022/12/29 09:01:50;;;;;;;4.53;0.80;;;;;;;8.84;100.00;99528.00;6220818;22;20065;-74
2022/12/29 09:04:17;;;;;;;1.52;1.10;;;;;;;8.71;100.00;99526.53;6222408;22;20007;-76
2022/12/29 09:06:45;;;;;;;5.07;1.02;;;;;;;8.70;100.00;99533.47;6274448;22;20016;-75
2022/12/29 09:09:12;;;;;;;2.92;0.88;;;;;;;8.71;100.00;99526.53;6222179;22;20012;-75
2022/12/29 09:11:39;;;;;;;2.40;1.15;;;;;;;8.68;100.00;99534.38;6244467;22;20020;-75
2022/12/29 09:14:05;;;;;;;2.28;1.38;;;;;;;8.68;100.00;99529.16;6243854;22;20011;-73
2022/12/29 09:16:32;;;;;;;3.42;2.35;;;;;;;8.67;100.00;99527.44;6245430;22;20458;-76
2022/12/29 09:18:58;;;;;;;4.45;1.40;;;;;;;8.64;100.00;99519.69;6242502;22;20427;-74
2022/12/29 09:21:25;;;;;;;5.57;1.02;;;;;;;8.56;100.00;99523.28;6243143;22;20019;-75
2022/12/29 09:23:51;;;;;;;3.15;0.93;;;;;;;8.69;100.00;99528.28;6242384;22;20435;-75
2022/12/29 09:26:18;;;;;;;2.03;0.80;;;;;;;8.67;100.00;99530.06;6243163;22;20039;-74
2022/12/29 09:28:45;;;;;;;1.60;0.70;;;;;;;8.73;100.00;99527.34;6271070;22;20083;-75
2022/12/29 09:31:12;;;;;;;1.42;0.57;;;;;;;8.83;100.00;99533.25;6220270;22;20107;-75
2022/12/29 09:33:38;;;;;;;1.10;0.95;;;;;;;8.87;100.00;99532.28;6244175;22;20391;-74
2022/12/29 09:36:05;;;;;;;1.10;0.60;;;;;;;9.01;100.00;99539.81;6245236;22;20015;-74
2022/12/29 09:38:32;;;;;;;0.52;0.52;;;;;;;9.05;100.00;99531.06;6272605;22;20019;-74
2022/12/29 09:41:35;;;;;;;0.50;0.50;;;;;;;9.17;100.00;99537.78;6220499;22;20011;-76
2022/12/29 09:44:17;;;;;;;1.23;0.80;;;;;;;9.18;100.00;99534.28;6245602;22;20015;-76
2022/12/29 09:46:52;;;;;;;3.60;0.60;;;;;;;9.15;100.00;99532.59;6273064;22;20091;-76
2022/12/29 09:49:57;;;;;;;2.08;0.73;;;;;;;9.22;100.00;99541.16;6245384;22;20012;-75
2022/12/29 09:52:29;;;;;;;1.90;0.90;;;;;;;9.33;100.00;99543.53;6244724;22;20022;-75
2022/12/29 09:55:17;;;;;;;3.50;0.65;;;;;;;9.35;100.00;99547.81;6219113;22;20069;-75
2022/12/29 09:57:58;;;;;;;0.95;0.52;;;;;;;9.33;100.00;99557.44;6244785;22;20012;-75
2022/12/29 10:00:49;;;;;;;2.63;1.10;;;;;;;9.37;100.00;99558.22;6245087;22;20008;-75
2022/12/29 10:03:20;;;;;;;1.05;0.60;;;;;;;9.42;100.00;99548.53;6243683;22;20011;-75
2022/12/29 10:06:18;;;;;;;1.52;0.57;;;;;;;9.51;100.00;99550.09;6245273;22;20008;-75
2022/12/29 10:09:11;;;;;;;1.20;0.68;;;;;;;9.45;100.00;99545.84;6244724;22;20012;-75
2022/12/29 10:11:47;;;;;;;1.13;0.98;;;;;;;9.27;100.00;99541.91;6271909;22;20667;-75
2022/12/29 10:14:42;;;;;;;0.30;0.30;;;;;;;9.16;100.00;99536.06;6244306;22;20012;-74
2022/12/29 10:17:29;;;;;;;0.50;0.50;;;;;;;8.97;100.00;99543.38;6207605;22;20455;-74
2022/12/29 10:20:32;;;;;;;0.60;0.60;;;;;;;8.85;100.00;99549.72;6245340;22;20398;-75
2022/12/29 10:23:27;;;;;;;0.63;0.60;;;;;;;8.97;100.00;99540.78;6243265;22;20011;-75
2022/12/29 10:25:57;;;;;;;0.40;0.40;;;;;;;8.92;100.00;99539.13;6271902;22;20015;-74
2022/12/29 10:28:35;;;;;;;1.65;0.38;;;;;;;8.90;100.00;99533.09;6245096;22;20726;-74
2022/12/29 10:31:15;;;;;;;2.78;0.63;;;;;;;8.88;100.00;99532.25;6243926;22;20392;-75
2022/12/29 10:33:44;;;;;;;0.93;0.60;;;;;;;9.03;100.00;99519.78;6243025;22;20394;-76
2022/12/29 10:36:20;;;;;;;1.65;0.60;;;;;;;9.06;100.00;99517.09;6219530;22;20019;-74
2022/12/29 10:39:14;;;;;;;0.68;0.40;;;;;;;9.03;100.00;99510.19;6218857;22;20020;-75
2022/12/29 10:41:50;;;;;;;2.90;0.82;;;;;;;9.14;100.00;99520.44;6218863;22;20030;-75
2022/12/29 10:44:18;;;;;;;0.63;0.50;;;;;;;9.26;100.00;99514.91;6269896;22;20070;-74
2022/12/29 10:46:45;;;;;;;0.60;0.60;;;;;;;9.37;100.00;99521.66;6219470;22;20050;-75
2022/12/29 10:49:17;;;;;;;2.28;1.40;;;;;;;9.48;98.61;99508.34;6244045;22;20026;-75
2022/12/29 10:51:47;;;;;;;2.22;0.93;;;;;;;9.59;95.91;99502.00;6218426;22;20019;-75
2022/12/29 10:54:22;;;;;;;2.75;0.60;;;;;;;9.80;92.42;99510.22;6218211;22;20016;-75
2022/12/29 10:57:02;;;;;;;2.22;0.90;;;;;;;9.91;90.97;99512.59;6243433;22;20008;-76
2022/12/29 10:59:36;;;;;;;2.65;0.65;;;;;;;9.99;89.80;99523.69;6269830;22;20331;-75
2022/12/29 11:02:11;;;;;;;1.50;0.77;;;;;;;10.01;89.79;99524.53;6243277;22;20091;-75
2022/12/29 11:05:19;;;;;;;2.35;0.88;;;;;;;9.97;89.51;99522.03;6242884;22;20023;-75
2022/12/29 11:07:49;;;;;;;4.63;0.70;;;;;;;10.06;88.38;99537.47;6218071;22;20020;-75
2022/12/29 11:10:45;;;;;;;2.78;0.70;;;;;;;10.12;87.33;99537.31;6242907;22;20016;-75
2022/12/29 11:13:15;;;;;;;2.80;0.60;;;;;;;10.15;86.64;99531.16;6237145;22;20046;-74
2022/12/29 11:15:48;;;;;;;4.43;1.20;;;;;;;10.09;87.76;99522.56;6243054;22;20016;-75
2022/12/29 11:18:35;;;;;;;3.08;0.85;;;;;;;10.13;86.76;99541.66;6218401;22;20092;-75
2022/12/29 11:21:06;;;;;;;2.78;0.70;;;;;;;10.10;85.87;99529.53;6242000;22;20020;-75
2022/12/29 11:23:41;;;;;;;0.73;0.73;;;;;;;9.89;87.44;99527.44;6217074;22;20640;-75
2022/12/29 11:26:22;;;;;;;3.70;0.77;;;;;;;9.83;88.76;99538.03;6217295;22;20065;-75
2022/12/29 11:29:08;;;;;;;4.35;1.20;;;;;;;9.79;88.94;99523.31;6241394;22;20012;-77
2022/12/29 11:31:43;;;;;;;2.25;1.33;;;;;;;9.72;89.93;99523.47;6190473;22;20012;-75
2022/12/29 11:34:17;;;;;;;4.05;0.98;;;;;;;9.67;90.35;99519.25;6242033;22;20018;-75
2022/12/29 11:36:44;;;;;;;3.13;1.27;;;;;;;9.64;90.97;99499.28;6219671;22;20026;-75
2022/12/29 11:39:33;;;;;;;2.45;0.90;;;;;;;9.66;90.82;99518.41;6244890;22;20019;-75
2022/12/29 11:42:00;;;;;;;1.92;0.85;;;;;;;9.68;90.56;99528.81;6271229;22;20035;-75
2022/12/29 11:44:27;;;;;;;0.63;0.63;;;;;;;9.75;89.47;99528.63;6244661;22;20022;-75
2022/12/29 11:46:55;;;;;;;3.53;1.52;;;;;;;9.81;89.29;99532.84;6243266;22;20073;-75
2022/12/29 11:49:25;;;;;;;3.60;1.00;;;;;;;9.87;88.65;99535.31;6243024;22;20019;-74
2022/12/29 11:51:56;;;;;;;3.17;0.95;;;;;;;9.92;88.00;99537.81;6217377;22;20493;-75
2022/12/29 11:54:37;;;;;;;5.55;1.20;;;;;;;10.04;87.37;99547.13;6242930;22;20023;-75
2022/12/29 11:57:18;;;;;;;2.17;0.40;;;;;;;10.18;83.98;99550.25;6218447;22;20020;-74
2022/12/29 11:59:55;;;;;;;1.40;0.60;;;;;;;10.30;84.38;99548.22;6243413;22;20247;-74
2022/12/29 12:02:36;;;;;;;1.27;0.55;;;;;;;10.53;83.84;99551.16;6243329;22;20383;-74
2022/12/29 12:05:14;;;;;;;3.15;0.90;;;;;;;10.84;80.12;99541.59;6243771;22;20035;-74
2022/12/29 12:07:48;;;;;;;3.28;1.55;;;;;;;11.08;79.24;99554.00;6244042;22;20023;-74
2022/12/29 12:10:23;;;;;;;;;;;;;;;11.19;76.57;99558.91;6246207;22;20372;-75
2022/12/29 12:13:08;;;;;;;2.58;0.73;;;;;;;11.14;75.04;99557.34;6244134;22;19922;-74
2022/12/29 12:15:41;;;;;;;3.13;0.82;;;;;;;11.07;74.17;99548.81;6244087;22;20746;-75
2022/12/29 12:18:20;;;;;;;2.90;0.30;;;;;;;11.07;74.50;99561.91;6218919;22;20075;-75
2022/12/29 12:20:55;;;;;;;2.22;0.85;;;;;;;11.05;74.63;99555.81;6244075;22;20012;-76
2022/12/29 12:23:37;;;;;;;3.15;0.43;;;;;;;10.98;75.08;99549.06;6242486;22;20015;-74
2022/12/29 12:26:14;;;;;;;1.75;1.15;;;;;;;10.98;74.51;99535.97;6244172;22;20793;-74
2022/12/29 12:28:54;;;;;;;2.75;0.45;;;;;;;10.96;74.93;99540.38;6245127;22;20077;-76
2022/12/29 12:31:40;;;;;;;1.80;0.30;;;;;;;10.90;75.70;99557.13;6244093;22;20095;-75
2022/12/29 12:34:17;;;;;;;1.58;0.60;;;;;;;10.81;76.43;99557.34;6270272;22;20022;-75